createdAt,value
2018-05-23T00:01:59.107Z,2.60
2018-05-23T00:04:27.213Z,2.13
2018-05-23T00:06:55.336Z,1.90
2018-05-23T00:09:23.464Z,2.40
2018-05-23T00:11:51.582Z,2.33
2018-05-23T00:14:19.680Z,2.30
2018-05-23T00:16:48.556Z,2.30
2018-05-23T00:19:16.673Z,2.30
2018-05-23T00:21:44.768Z,2.17
2018-05-23T00:24:12.890Z,2.43
2018-05-23T00:26:41.007Z,1.87
2018-05-23T00:29:09.116Z,2.97
2018-05-23T00:31:37.220Z,2.47
2018-05-23T00:34:05.333Z,2.50
2018-05-23T00:36:33.453Z,2.10
2018-05-23T00:39:01.573Z,2.23
2018-05-23T00:41:29.703Z,3.60
2018-05-23T00:43:57.819Z,2.33
2018-05-23T00:46:26.688Z,2.40
2018-05-23T00:48:54.787Z,2.57
2018-05-23T00:51:23.655Z,2.30
2018-05-23T00:53:51.773Z,2.67
2018-05-23T00:56:19.886Z,2.37
2018-05-23T00:58:48.021Z,2.50
2018-05-23T01:01:16.142Z,2.87
2018-05-23T01:03:44.236Z,2.87
2018-05-23T01:06:12.361Z,2.83
2018-05-23T01:08:40.958Z,2.23
2018-05-23T01:11:09.066Z,2.37
2018-05-23T01:13:37.167Z,2.10
2018-05-23T01:16:05.294Z,2.10
2018-05-23T01:18:33.419Z,2.50
2018-05-23T01:21:01.544Z,2.20
2018-05-23T01:23:29.647Z,2.30
2018-05-23T01:25:57.779Z,2.20
2018-05-23T01:28:26.675Z,3.00
2018-05-23T01:30:54.783Z,2.40
2018-05-23T01:33:22.930Z,2.50
2018-05-23T01:35:51.069Z,2.50
2018-05-23T01:38:19.181Z,2.90
2018-05-23T01:40:48.051Z,2.77
2018-05-23T01:43:16.190Z,2.90
2018-05-23T01:45:44.317Z,2.50
2018-05-23T01:48:13.183Z,2.90
2018-05-23T01:50:41.304Z,2.87
2018-05-23T01:53:09.400Z,2.47
2018-05-23T01:55:37.517Z,2.60
2018-05-23T01:58:05.629Z,3.07
2018-05-23T02:00:34.543Z,2.70
2018-05-23T02:03:02.656Z,2.70
2018-05-23T02:05:31.532Z,2.60
2018-05-23T02:07:59.649Z,2.23
2018-05-23T02:10:27.764Z,2.63
2018-05-23T02:12:55.861Z,3.30
2018-05-23T02:15:23.967Z,2.77
2018-05-23T02:17:52.080Z,2.40
2018-05-23T02:20:20.979Z,2.20
2018-05-23T02:22:49.100Z,2.70
2018-05-23T02:25:17.213Z,3.00
2018-05-23T02:27:45.337Z,3.30
2018-05-23T02:30:13.450Z,3.00
2018-05-23T02:32:41.565Z,3.83
2018-05-23T02:35:09.669Z,4.47
2018-05-23T02:37:38.552Z,3.23
2018-05-23T02:40:06.658Z,3.40
2018-05-23T02:42:34.771Z,2.77
2018-05-23T02:45:04.573Z,2.73
2018-05-23T02:47:32.684Z,2.60
2018-05-23T02:50:00.809Z,2.67
2018-05-23T02:52:28.917Z,3.20
2018-05-23T02:54:57.803Z,3.40
2018-05-23T02:57:25.908Z,2.90
2018-05-23T02:59:54.066Z,3.30
2018-05-23T03:02:22.931Z,3.07
2018-05-23T03:04:51.045Z,2.60
2018-05-23T03:07:19.924Z,2.90
2018-05-23T03:09:48.812Z,3.10
2018-05-23T03:12:16.947Z,2.95
2018-05-23T03:14:45.096Z,2.43
2018-05-23T03:17:13.202Z,2.47
2018-05-23T03:19:41.324Z,4.80
2018-05-23T03:22:09.515Z,3.37
2018-05-23T03:24:37.546Z,3.60
2018-05-23T03:27:05.664Z,4.37
2018-05-23T03:29:34.551Z,3.00
2018-05-23T03:32:02.677Z,3.43
2018-05-23T03:34:30.780Z,3.23
2018-05-23T03:36:58.890Z,3.40
2018-05-23T03:39:27.781Z,3.00
2018-05-23T03:41:55.903Z,3.40
2018-05-23T03:44:24.000Z,3.10
2018-05-23T03:46:52.096Z,3.47
2018-05-23T03:49:20.206Z,2.47
2018-05-23T03:51:48.324Z,3.40
2018-05-23T03:54:16.435Z,3.03
2018-05-23T03:56:44.545Z,2.73
2018-05-23T03:59:12.677Z,2.90
2018-05-23T04:01:52.533Z,3.00
2018-05-23T04:04:32.542Z,2.93
2018-05-23T04:10:06.720Z,3.30
2018-05-23T04:12:35.585Z,3.67
2018-05-23T04:15:05.068Z,2.60
2018-05-23T04:17:33.171Z,2.80
2018-05-23T04:20:01.279Z,3.47
2018-05-23T04:22:29.409Z,3.07
2018-05-23T04:24:57.597Z,2.80
2018-05-23T04:27:25.656Z,2.90
2018-05-23T04:29:54.590Z,3.63
2018-05-23T04:32:23.473Z,3.07
2018-05-23T04:34:51.664Z,2.90
2018-05-23T04:37:20.547Z,3.90
2018-05-23T04:39:48.656Z,3.70
2018-05-23T04:42:16.770Z,2.63
2018-05-23T04:44:44.878Z,3.50
2018-05-23T04:47:12.994Z,2.73
2018-05-23T04:49:41.107Z,3.60
2018-05-23T04:52:09.213Z,3.55
2018-05-23T04:54:38.110Z,3.33
2018-05-23T04:57:06.220Z,3.70
2018-05-23T04:59:34.322Z,2.60
2018-05-23T05:02:02.501Z,2.87
2018-05-23T05:04:30.604Z,2.80
2018-05-23T05:06:58.719Z,3.17
2018-05-23T05:09:26.881Z,2.80
2018-05-23T05:11:55.098Z,2.50
2018-05-23T05:14:23.243Z,3.10
2018-05-23T05:16:52.121Z,2.80
2018-05-23T05:19:20.233Z,2.97
2018-05-23T05:21:48.352Z,2.70
2018-05-23T05:24:16.462Z,3.70
2018-05-23T05:26:45.339Z,3.57
2018-05-23T05:29:13.445Z,3.80
2018-05-23T05:31:42.678Z,3.27
2018-05-23T05:34:10.723Z,2.53
2018-05-23T05:36:38.845Z,2.57
2018-05-23T05:39:06.947Z,2.87
2018-05-23T05:41:35.056Z,2.93
2018-05-23T05:44:04.862Z,2.87
2018-05-23T05:46:33.735Z,3.20
2018-05-23T05:49:01.861Z,2.40
2018-05-23T05:51:29.974Z,2.60
2018-05-23T05:53:58.079Z,3.33
2018-05-23T05:56:27.008Z,3.30
2018-05-23T05:58:55.127Z,2.87
2018-05-23T06:01:23.246Z,3.97
2018-05-23T06:03:51.384Z,3.20
2018-05-23T06:06:19.493Z,4.60
2018-05-23T06:08:48.365Z,5.33
2018-05-23T06:11:17.251Z,4.87
2018-05-23T06:13:45.385Z,5.53
2018-05-23T06:16:13.508Z,4.20
2018-05-23T06:18:42.224Z,3.67
2018-05-23T06:21:10.357Z,4.40
2018-05-23T06:23:38.505Z,4.37
2018-05-23T06:26:06.608Z,4.00
2018-05-23T06:28:34.712Z,4.03
2018-05-23T06:31:02.836Z,3.80
2018-05-23T06:33:30.933Z,3.60
2018-05-23T06:35:59.809Z,3.93
2018-05-23T06:38:27.933Z,4.10
2018-05-23T06:40:56.036Z,3.80
2018-05-23T06:43:24.196Z,3.50
2018-05-23T06:45:52.308Z,4.20
2018-05-23T06:48:20.433Z,3.57
2018-05-23T06:50:48.559Z,4.10
2018-05-23T06:53:16.707Z,3.50
2018-05-23T06:55:44.856Z,3.63
2018-05-23T06:58:13.660Z,3.23
2018-05-23T07:00:41.769Z,3.60
2018-05-23T07:03:09.887Z,3.03
2018-05-23T07:05:38.009Z,4.50
2018-05-23T07:08:06.145Z,3.37
2018-05-23T07:10:34.270Z,3.47
2018-05-23T07:13:04.078Z,3.67
2018-05-23T07:15:32.187Z,3.67
2018-05-23T07:18:00.392Z,3.20
2018-05-23T07:20:28.401Z,3.80
2018-05-23T07:22:56.535Z,3.60
2018-05-23T07:25:24.638Z,3.80
2018-05-23T07:27:52.758Z,3.70
2018-05-23T07:30:20.853Z,3.70
2018-05-23T07:32:48.981Z,3.53
2018-05-23T07:35:17.098Z,4.55
2018-05-23T07:37:45.237Z,3.80
2018-05-23T07:40:13.331Z,2.90
2018-05-23T07:42:42.217Z,4.17
2018-05-23T07:45:11.100Z,4.60
2018-05-23T07:47:39.219Z,4.33
2018-05-23T07:50:07.347Z,3.97
2018-05-23T07:52:35.439Z,3.90
2018-05-23T07:55:04.840Z,3.97
2018-05-23T07:57:32.953Z,3.60
2018-05-23T08:00:01.048Z,3.90
2018-05-23T08:02:29.173Z,3.70
2018-05-23T08:04:57.305Z,3.50
2018-05-23T08:07:25.423Z,4.40
2018-05-23T08:09:53.538Z,3.53
2018-05-23T08:12:21.631Z,4.30
2018-05-23T08:14:49.744Z,3.70
2018-05-23T08:17:17.860Z,4.80
2018-05-23T08:19:45.968Z,4.50
2018-05-23T08:22:14.088Z,4.40
2018-05-23T08:24:42.995Z,3.90
2018-05-23T08:27:11.888Z,3.83
2018-05-23T08:29:40.858Z,3.43
2018-05-23T08:32:08.891Z,3.70
2018-05-23T08:34:37.014Z,3.47
2018-05-23T08:37:05.134Z,4.13
2018-05-23T08:39:33.243Z,3.73
2018-05-23T08:42:01.357Z,3.20
2018-05-23T08:44:30.338Z,3.27
2018-05-23T08:46:59.131Z,3.63
2018-05-23T08:49:27.250Z,3.97
2018-05-23T08:51:55.379Z,4.13
2018-05-23T08:54:23.482Z,4.00
2018-05-23T08:56:52.738Z,3.43
2018-05-23T08:59:21.632Z,3.40
2018-05-23T09:01:49.765Z,3.87
2018-05-23T09:04:17.913Z,3.70
2018-05-23T09:06:46.807Z,4.20
2018-05-23T09:09:14.903Z,3.60
2018-05-23T09:11:43.808Z,3.27
2018-05-23T09:14:12.688Z,3.50
2018-05-23T09:16:40.837Z,4.33
2018-05-23T09:19:08.958Z,3.80
2018-05-23T09:21:37.833Z,4.50
2018-05-23T09:24:06.204Z,4.67
2018-05-23T09:26:34.300Z,4.13
2018-05-23T09:29:04.106Z,4.20
2018-05-23T09:31:32.213Z,4.33
2018-05-23T09:34:00.342Z,4.43
2018-05-23T09:36:28.449Z,4.37
2018-05-23T09:38:57.349Z,4.20
2018-05-23T09:41:26.242Z,4.20
2018-05-23T09:43:55.143Z,3.93
2018-05-23T09:46:23.998Z,3.70
2018-05-23T09:48:52.388Z,4.27
2018-05-23T09:51:20.498Z,4.07
2018-05-23T09:53:49.367Z,4.30
2018-05-23T09:56:17.492Z,4.55
2018-05-23T09:58:45.770Z,4.43
2018-05-23T10:01:13.918Z,5.40
2018-05-23T10:03:42.396Z,4.13
2018-05-23T10:06:10.740Z,4.15
2018-05-23T10:08:39.631Z,4.00
2018-05-23T10:11:07.736Z,4.23
2018-05-23T10:13:35.885Z,5.07
2018-05-23T10:16:04.012Z,4.27
2018-05-23T10:18:32.123Z,4.00
2018-05-23T10:21:00.264Z,4.87
2018-05-23T10:23:29.147Z,4.03
2018-05-23T10:25:57.251Z,4.40
2018-05-23T10:28:25.670Z,4.27
2018-05-23T10:30:53.791Z,4.53
2018-05-23T10:33:22.699Z,4.50
2018-05-23T10:35:50.781Z,4.60
2018-05-23T10:38:19.701Z,4.10
2018-05-23T10:40:47.831Z,4.40
2018-05-23T10:43:15.949Z,4.20
2018-05-23T10:45:44.064Z,4.20
2018-05-23T10:48:12.195Z,3.80
2018-05-23T10:50:40.313Z,4.23
2018-05-23T10:53:08.435Z,4.13
2018-05-23T10:55:36.535Z,3.90
2018-05-23T10:58:04.652Z,4.20
2018-05-23T11:00:32.760Z,4.57
2018-05-23T11:03:01.738Z,4.17
2018-05-23T11:05:29.755Z,3.87
2018-05-23T11:07:57.873Z,4.30
2018-05-23T11:10:25.989Z,4.23
2018-05-23T11:12:54.124Z,3.80
2018-05-23T11:15:22.313Z,3.83
2018-05-23T11:17:50.377Z,4.40
2018-05-23T11:20:18.476Z,3.50
2018-05-23T11:22:46.595Z,3.70
2018-05-23T11:25:14.725Z,2.90
2018-05-23T11:27:42.833Z,2.80
2018-05-23T11:30:10.945Z,3.20
2018-05-23T11:32:39.052Z,3.07
2018-05-23T11:35:07.176Z,3.40
2018-05-23T11:37:35.313Z,3.37
2018-05-23T11:40:04.700Z,3.47
2018-05-23T11:42:32.828Z,3.23
2018-05-23T11:45:00.943Z,2.83
2018-05-23T11:47:29.073Z,2.70
2018-05-23T11:49:57.185Z,2.90
2018-05-23T11:52:25.289Z,3.17
2018-05-23T11:54:53.394Z,3.17
2018-05-23T11:57:22.267Z,3.53
2018-05-23T11:59:50.366Z,2.63
2018-05-23T12:02:19.250Z,3.75
2018-05-23T12:04:48.168Z,3.17
2018-05-23T12:07:16.273Z,2.80
2018-05-23T12:09:44.400Z,2.80
2018-05-23T12:12:13.323Z,2.80
2018-05-23T12:14:41.440Z,3.00
2018-05-23T12:17:09.672Z,2.93
2018-05-23T12:19:37.857Z,3.10
2018-05-23T12:22:06.004Z,3.10
2018-05-23T12:24:34.125Z,2.97
2018-05-23T12:27:02.229Z,3.07
2018-05-23T12:29:30.324Z,3.43
2018-05-23T12:31:58.479Z,3.67
2018-05-23T12:34:26.624Z,3.00
2018-05-23T12:36:54.742Z,3.00
2018-05-23T12:39:22.844Z,3.00
2018-05-23T12:41:51.745Z,3.67
2018-05-23T12:44:20.679Z,3.43
2018-05-23T12:46:48.808Z,3.03
2018-05-23T12:49:16.933Z,3.13
2018-05-23T12:51:45.060Z,3.00
2018-05-23T12:54:13.957Z,2.17
2018-05-23T12:56:42.077Z,3.17
2018-05-23T12:59:10.197Z,2.63
2018-05-23T13:01:38.305Z,2.90
2018-05-23T13:04:07.173Z,2.70
2018-05-23T13:06:35.288Z,3.10
2018-05-23T13:09:03.983Z,2.50
2018-05-23T13:11:32.099Z,2.78
2018-05-23T13:14:00.196Z,3.00
2018-05-23T13:16:28.318Z,2.90
2018-05-23T13:18:56.425Z,2.90
2018-05-23T13:21:24.527Z,3.10
2018-05-23T13:23:52.622Z,3.00
2018-05-23T13:26:21.493Z,2.80
2018-05-23T13:28:49.592Z,3.27
2018-05-23T13:31:17.701Z,2.77
2018-05-23T13:33:45.807Z,2.47
2018-05-23T13:36:13.926Z,2.92
2018-05-23T13:38:42.780Z,2.70
2018-05-23T13:41:10.893Z,2.37
2018-05-23T13:43:39.775Z,2.90
2018-05-23T13:46:07.898Z,2.70
2018-05-23T13:48:35.995Z,2.57
2018-05-23T13:51:04.137Z,2.67
2018-05-23T13:53:32.240Z,2.30
2018-05-23T13:56:00.346Z,3.30
2018-05-23T13:58:28.459Z,2.50
2018-05-23T14:00:57.263Z,2.80
2018-05-23T14:03:25.377Z,2.80
2018-05-23T14:05:53.499Z,2.77
2018-05-23T14:08:22.478Z,2.53
2018-05-23T14:10:50.614Z,2.20
2018-05-23T14:13:18.719Z,2.67
2018-05-23T14:15:46.863Z,2.40
2018-05-23T14:18:14.977Z,2.47
2018-05-23T14:20:43.103Z,2.40
2018-05-23T14:23:11.223Z,2.17
2018-05-23T14:25:39.336Z,2.60
2018-05-23T14:28:07.452Z,2.50
2018-05-23T14:30:35.544Z,2.20
2018-05-23T14:33:04.769Z,2.17
2018-05-23T14:35:32.910Z,2.20
2018-05-23T14:38:01.134Z,2.40
2018-05-23T14:40:29.216Z,2.07
2018-05-23T14:42:58.107Z,2.13
2018-05-23T14:45:26.975Z,2.40
2018-05-23T14:47:55.100Z,2.23
2018-05-23T14:50:23.206Z,2.07
2018-05-23T14:52:51.300Z,2.10
2018-05-23T14:55:19.429Z,2.23
2018-05-23T14:57:47.589Z,2.53
2018-05-23T15:00:16.511Z,2.33
2018-05-23T15:02:44.627Z,2.60
2018-05-23T15:05:12.757Z,2.62
2018-05-23T15:07:40.901Z,2.40
2018-05-23T15:10:09.027Z,2.55
2018-05-23T15:12:37.147Z,1.97
2018-05-23T15:15:05.299Z,2.10
2018-05-23T15:17:33.385Z,2.50
2018-05-23T15:20:01.537Z,1.90
2018-05-23T15:22:29.603Z,2.80
2018-05-23T15:24:58.251Z,2.53
2018-05-23T15:27:27.037Z,2.33
2018-05-23T15:29:55.165Z,2.40
2018-05-23T15:32:23.279Z,2.30
2018-05-23T15:34:51.406Z,2.33
2018-05-23T15:37:19.509Z,2.10
2018-05-23T15:39:47.825Z,2.43
2018-05-23T15:42:15.938Z,2.40
2018-05-23T15:44:44.039Z,1.97
2018-05-23T15:47:12.185Z,2.50
2018-05-23T15:49:41.061Z,2.70
2018-05-23T15:52:09.250Z,2.13
2018-05-23T15:54:38.152Z,2.47
2018-05-23T15:57:07.040Z,2.07
2018-05-23T15:59:35.931Z,2.67
2018-05-23T16:02:04.045Z,2.27
2018-05-23T16:04:32.160Z,2.93
2018-05-23T16:07:00.259Z,2.60
2018-05-23T16:09:29.181Z,2.40
2018-05-23T16:11:57.248Z,2.47
2018-05-23T16:14:26.373Z,2.40
2018-05-23T16:16:54.485Z,2.43
2018-05-23T16:19:22.611Z,2.20
2018-05-23T16:21:50.724Z,2.30
2018-05-23T16:24:18.836Z,2.20
2018-05-23T16:26:47.722Z,2.20
2018-05-23T16:29:15.849Z,2.30
2018-05-23T16:31:43.969Z,2.70
2018-05-23T16:34:12.098Z,2.40
2018-05-23T16:36:40.218Z,2.13
2018-05-23T16:39:08.336Z,2.13
2018-05-23T16:41:36.450Z,2.27
2018-05-23T16:44:04.579Z,2.30
2018-05-23T16:46:32.676Z,2.73
2018-05-23T16:49:00.796Z,2.07
2018-05-23T16:51:28.918Z,2.53
2018-05-23T16:53:57.038Z,2.27
2018-05-23T16:56:25.148Z,2.30
2018-05-23T16:58:54.037Z,2.20
2018-05-23T17:01:22.151Z,2.40
2018-05-23T17:03:50.287Z,2.30
2018-05-23T17:06:18.391Z,2.23
2018-05-23T17:08:46.516Z,2.00
2018-05-23T17:11:14.631Z,1.90
2018-05-23T17:13:43.557Z,2.05
2018-05-23T17:16:11.664Z,1.97
2018-05-23T17:18:39.845Z,2.47
2018-05-23T17:21:08.662Z,2.40
2018-05-23T17:23:37.229Z,1.90
2018-05-23T17:26:05.363Z,3.07
2018-05-23T17:28:33.460Z,1.80
2018-05-23T17:31:01.586Z,2.00
2018-05-23T17:33:29.784Z,2.20
2018-05-23T17:35:57.833Z,2.20
2018-05-23T17:38:25.954Z,2.23
2018-05-23T17:40:54.167Z,1.90
2018-05-23T17:43:22.291Z,2.37
2018-05-23T17:45:51.215Z,2.10
2018-05-23T17:48:20.061Z,2.40
2018-05-23T17:50:48.963Z,2.10
2018-05-23T17:53:17.082Z,1.80
2018-05-23T17:55:45.216Z,2.33
2018-05-23T17:58:13.311Z,2.20
2018-05-23T18:00:41.445Z,2.00
2018-05-23T18:03:09.561Z,1.90
2018-05-23T18:05:37.684Z,1.93
2018-05-23T18:08:05.787Z,2.10
2018-05-23T18:10:33.892Z,2.13
2018-05-23T18:13:02.034Z,2.17
2018-05-23T18:15:30.139Z,2.17
2018-05-23T18:17:58.322Z,1.70
2018-05-23T18:20:26.497Z,1.93
2018-05-23T18:22:54.548Z,2.70
2018-05-23T18:25:22.672Z,2.13
2018-05-23T18:27:50.817Z,1.50
2018-05-23T18:30:19.691Z,2.03
2018-05-23T18:32:47.828Z,1.93
2018-05-23T18:35:15.949Z,2.00
2018-05-23T18:37:44.052Z,1.97
2018-05-23T18:40:12.921Z,1.80
2018-05-23T18:42:41.043Z,1.70
2018-05-23T18:45:09.156Z,1.97
2018-05-23T18:47:37.259Z,1.60
2018-05-23T18:50:05.403Z,1.60
2018-05-23T18:52:34.310Z,1.80
2018-05-23T18:55:03.356Z,1.70
2018-05-23T18:57:31.468Z,1.40
2018-05-23T18:59:59.569Z,1.77
2018-05-23T19:02:27.680Z,1.67
2018-05-23T19:04:55.800Z,1.90
2018-05-23T19:07:23.934Z,1.67
2018-05-23T19:09:52.888Z,2.13
2018-05-23T19:12:21.015Z,1.60
2018-05-23T19:14:49.138Z,1.90
2018-05-23T19:17:17.243Z,1.70
2018-05-23T19:19:45.412Z,1.43
2018-05-23T19:22:14.259Z,1.70
2018-05-23T19:24:42.377Z,2.20
2018-05-23T19:27:10.549Z,2.27
2018-05-23T19:29:38.677Z,1.83
2018-05-23T19:32:07.131Z,1.60
2018-05-23T19:34:35.291Z,1.47
2018-05-23T19:37:04.853Z,1.40
2018-05-23T19:39:32.996Z,1.37
2018-05-23T19:42:01.135Z,1.97
2018-05-23T19:44:30.731Z,1.77
2018-05-23T19:46:59.622Z,1.73
2018-05-23T19:49:27.766Z,1.67
2018-05-23T19:51:56.646Z,1.60
2018-05-23T19:54:24.772Z,1.70
2018-05-23T19:56:52.889Z,1.43
2018-05-23T19:59:21.005Z,1.77
2018-05-23T20:01:49.122Z,2.40
2018-05-23T20:04:17.227Z,2.37
2018-05-23T20:06:45.405Z,3.30
2018-05-23T20:09:13.561Z,3.03
2018-05-23T20:11:42.457Z,2.60
2018-05-23T20:14:10.587Z,2.53
2018-05-23T20:16:38.689Z,2.30
2018-05-23T20:19:06.856Z,2.90
2018-05-23T20:21:34.989Z,2.37
2018-05-23T20:24:04.483Z,2.10
2018-05-23T20:26:32.658Z,2.47
2018-05-23T20:29:00.787Z,2.07
2018-05-23T20:31:28.904Z,2.37
2018-05-23T20:33:57.033Z,2.90
2018-05-23T20:36:25.161Z,1.90
2018-05-23T20:38:53.283Z,2.13
2018-05-23T20:41:21.414Z,2.03
2018-05-23T20:43:49.537Z,2.10
2018-05-23T20:46:17.661Z,2.30
2018-05-23T20:48:45.844Z,2.30
2018-05-23T20:51:13.962Z,1.80
2018-05-23T20:53:42.094Z,1.93
2018-05-23T20:56:10.200Z,2.47
2018-05-23T20:58:38.368Z,2.80
2018-05-23T21:01:06.540Z,1.90
2018-05-23T21:03:34.652Z,1.73
2018-05-23T21:06:02.778Z,2.00
2018-05-23T21:08:31.655Z,2.03
2018-05-23T21:11:00.567Z,1.73
2018-05-23T21:13:29.439Z,2.60
2018-05-23T21:15:57.568Z,2.00
2018-05-23T21:18:25.680Z,1.93
2018-05-23T21:20:53.796Z,2.07
2018-05-23T21:23:21.903Z,2.00
2018-05-23T21:25:50.038Z,1.60
2018-05-23T21:28:18.922Z,1.80
2018-05-23T21:30:47.051Z,1.90
2018-05-23T21:33:15.186Z,1.77
2018-05-23T21:35:44.078Z,2.23
2018-05-23T21:38:12.958Z,1.70
2018-05-23T21:40:41.064Z,1.80
2018-05-23T21:43:09.958Z,2.30
2018-05-23T21:45:38.100Z,2.12
2018-05-23T21:48:07.020Z,1.53
2018-05-23T21:50:35.878Z,1.90
2018-05-23T21:53:04.023Z,2.00
2018-05-23T21:55:32.169Z,1.77
2018-05-23T21:58:01.073Z,1.53
2018-05-23T22:00:29.184Z,1.40
2018-05-23T22:02:57.289Z,2.00
2018-05-23T22:05:25.420Z,2.10
2018-05-23T22:07:53.525Z,1.97
2018-05-23T22:10:22.410Z,1.97
2018-05-23T22:12:50.567Z,1.70
2018-05-23T22:15:18.688Z,1.90
2018-05-23T22:17:46.829Z,2.37
2018-05-23T22:20:14.932Z,1.73
2018-05-23T22:22:43.045Z,2.00
2018-05-23T22:25:11.918Z,1.80
2018-05-23T22:27:40.049Z,1.97
2018-05-23T22:30:08.182Z,1.77
2018-05-23T22:32:36.288Z,1.97
2018-05-23T22:35:04.415Z,2.10
2018-05-23T22:37:32.513Z,1.70
2018-05-23T22:40:00.639Z,2.27
2018-05-23T22:42:28.749Z,1.70
2018-05-23T22:44:56.884Z,2.30
2018-05-23T22:47:25.011Z,2.03
2018-05-23T22:49:53.139Z,1.83
2018-05-23T22:52:21.252Z,1.50
2018-05-23T22:54:50.013Z,2.37
2018-05-23T22:57:18.944Z,2.10
2018-05-23T22:59:47.069Z,2.40
2018-05-23T23:02:15.210Z,2.17
2018-05-23T23:04:43.295Z,2.37
2018-05-23T23:07:11.396Z,2.33
2018-05-23T23:09:39.527Z,2.20
2018-05-23T23:12:07.669Z,2.30
2018-05-23T23:14:35.794Z,1.80
2018-05-23T23:17:04.057Z,1.80
2018-05-23T23:19:32.176Z,1.83
2018-05-23T23:22:01.050Z,1.80
2018-05-23T23:24:29.179Z,1.63
2018-05-23T23:26:57.304Z,2.53
2018-05-23T23:29:25.411Z,1.97
2018-05-23T23:31:53.531Z,2.00
2018-05-23T23:34:21.648Z,2.27
2018-05-23T23:36:50.537Z,1.90
2018-05-23T23:39:18.653Z,1.70
2018-05-23T23:41:46.760Z,2.20
2018-05-23T23:44:14.856Z,1.63
2018-05-23T23:46:42.982Z,2.53
2018-05-23T23:49:11.095Z,2.23
2018-05-23T23:51:39.274Z,1.90
2018-05-23T23:54:07.377Z,2.03
2018-05-23T23:56:36.268Z,1.87
2018-05-23T23:59:04.388Z,1.90
